sensor_id;sensor_type;location;lat;lon;timestamp;P1;P2;P0
40371;PMS5003;28564;53.346;-6.554;2023-01-15T00:01:17;4;1;
40371;PMS5003;28564;53.346;-6.554;2023-01-15T00:03:47;2;2;
40371;PMS5003;28564;53.346;-6.554;2023-01-15T00:06:14;2;1;
40371;PMS5003;28564;53.346;-6.554;2023-01-15T00:08:42;6;3;
40371;PMS5003;28564;53.346;-6.554;2023-01-15T00:11:10;2;2;
40371;PMS5003;28564;53.346;-6.554;2023-01-15T00:13:37;1;1;
40371;PMS5003;28564;53.346;-6.554;2023-01-15T00:16:05;2;2;
40371;PMS5003;28564;53.346;-6.554;2023-01-15T00:18:35;2;1;
40371;PMS5003;28564;53.346;-6.554;2023-01-15T00:21:03;2;2;
40371;PMS5003;28564;53.346;-6.554;2023-01-15T00:23:33;1;1;
40371;PMS5003;28564;53.346;-6.554;2023-01-15T00:26:01;3;1;
40371;PMS5003;28564;53.346;-6.554;2023-01-15T00:28:29;2;1;
40371;PMS5003;28564;53.346;-6.554;2023-01-15T00:30:56;1;1;
40371;PMS5003;28564;53.346;-6.554;2023-01-15T00:33:23;5;5;
40371;PMS5003;28564;53.346;-6.554;2023-01-15T00:35:50;3;2;
40371;PMS5003;28564;53.346;-6.554;2023-01-15T00:38:17;1;1;
40371;PMS5003;28564;53.346;-6.554;2023-01-15T00:40:45;2;2;
40371;PMS5003;28564;53.346;-6.554;2023-01-15T00:43:12;2;2;
40371;PMS5003;28564;53.346;-6.554;2023-01-15T00:45:40;2;2;
40371;PMS5003;28564;53.346;-6.554;2023-01-15T00:48:07;2;2;
40371;PMS5003;28564;53.346;-6.554;2023-01-15T00:50:35;1;1;
40371;PMS5003;28564;53.346;-6.554;2023-01-15T00:53:02;3;2;
40371;PMS5003;28564;53.346;-6.554;2023-01-15T00:55:29;1;1;
40371;PMS5003;28564;53.346;-6.554;2023-01-15T00:57:57;3;3;
40371;PMS5003;28564;53.346;-6.554;2023-01-15T01:00:24;3;1;
40371;PMS5003;28564;53.346;-6.554;2023-01-15T01:02:52;2;2;
40371;PMS5003;28564;53.346;-6.554;2023-01-15T01:05:19;3;2;
40371;PMS5003;28564;53.346;-6.554;2023-01-15T01:07:47;2;2;
40371;PMS5003;28564;53.346;-6.554;2023-01-15T01:10:14;3;2;
40371;PMS5003;28564;53.346;-6.554;2023-01-15T01:12:42;2;2;
40371;PMS5003;28564;53.346;-6.554;2023-01-15T01:15:09;3;2;
40371;PMS5003;28564;53.346;-6.554;2023-01-15T01:17:37;1;1;
40371;PMS5003;28564;53.346;-6.554;2023-01-15T01:20:04;1;1;
40371;PMS5003;28564;53.346;-6.554;2023-01-15T01:22:32;3;1;
40371;PMS5003;28564;53.346;-6.554;2023-01-15T01:25:00;3;1;
40371;PMS5003;28564;53.346;-6.554;2023-01-15T01:27:27;1;1;
40371;PMS5003;28564;53.346;-6.554;2023-01-15T01:29:54;0;0;
40371;PMS5003;28564;53.346;-6.554;2023-01-15T01:32:22;3;1;
40371;PMS5003;28564;53.346;-6.554;2023-01-15T01:34:49;1;1;
40371;PMS5003;28564;53.346;-6.554;2023-01-15T01:37:17;0;0;
40371;PMS5003;28564;53.346;-6.554;2023-01-15T01:39:44;1;1;
40371;PMS5003;28564;53.346;-6.554;2023-01-15T01:42:12;1;1;
40371;PMS5003;28564;53.346;-6.554;2023-01-15T01:45:17;2;1;
40371;PMS5003;28564;53.346;-6.554;2023-01-15T01:47:48;0;0;
40371;PMS5003;28564;53.346;-6.554;2023-01-15T01:50:15;1;1;
40371;PMS5003;28564;53.346;-6.554;2023-01-15T01:52:44;1;1;
40371;PMS5003;28564;53.346;-6.554;2023-01-15T01:55:15;2;2;
40371;PMS5003;28564;53.346;-6.554;2023-01-15T01:57:46;1;1;
40371;PMS5003;28564;53.346;-6.554;2023-01-15T02:00:15;3;1;
40371;PMS5003;28564;53.346;-6.554;2023-01-15T02:02:45;2;1;
40371;PMS5003;28564;53.346;-6.554;2023-01-15T02:05:17;1;1;
40371;PMS5003;28564;53.346;-6.554;2023-01-15T02:07:51;2;1;
40371;PMS5003;28564;53.346;-6.554;2023-01-15T02:10:19;1;1;
40371;PMS5003;28564;53.346;-6.554;2023-01-15T02:12:48;3;1;
40371;PMS5003;28564;53.346;-6.554;2023-01-15T02:15:22;2;2;
40371;PMS5003;28564;53.346;-6.554;2023-01-15T02:17:59;1;1;
40371;PMS5003;28564;53.346;-6.554;2023-01-15T02:20:32;1;1;
40371;PMS5003;28564;53.346;-6.554;2023-01-15T02:23:11;2;1;
40371;PMS5003;28564;53.346;-6.554;2023-01-15T02:25:59;1;1;
40371;PMS5003;28564;53.346;-6.554;2023-01-15T02:28:39;1;1;
40371;PMS5003;28564;53.346;-6.554;2023-01-15T02:31:09;2;0;
40371;PMS5003;28564;53.346;-6.554;2023-01-15T02:33:44;0;0;
40371;PMS5003;28564;53.346;-6.554;2023-01-15T02:36:17;0;0;
40371;PMS5003;28564;53.346;-6.554;2023-01-15T02:38:49;3;1;
40371;PMS5003;28564;53.346;-6.554;2023-01-15T02:41:22;1;1;
40371;PMS5003;28564;53.346;-6.554;2023-01-15T02:43:53;0;0;
40371;PMS5003;28564;53.346;-6.554;2023-01-15T02:46:23;4;1;
40371;PMS5003;28564;53.346;-6.554;2023-01-15T02:48:55;3;2;
40371;PMS5003;28564;53.346;-6.554;2023-01-15T02:51:26;1;1;
40371;PMS5003;28564;53.346;-6.554;2023-01-15T02:53:58;3;1;
40371;PMS5003;28564;53.346;-6.554;2023-01-15T02:56:29;1;1;
40371;PMS5003;28564;53.346;-6.554;2023-01-15T02:59:01;0;0;
40371;PMS5003;28564;53.346;-6.554;2023-01-15T03:01:31;1;1;
40371;PMS5003;28564;53.346;-6.554;2023-01-15T03:04:06;4;1;
40371;PMS5003;28564;53.346;-6.554;2023-01-15T03:06:37;2;1;
40371;PMS5003;28564;53.346;-6.554;2023-01-15T03:09:08;1;1;
40371;PMS5003;28564;53.346;-6.554;2023-01-15T03:11:37;1;1;
40371;PMS5003;28564;53.346;-6.554;2023-01-15T03:14:12;0;0;
40371;PMS5003;28564;53.346;-6.554;2023-01-15T03:16:44;0;0;
40371;PMS5003;28564;53.346;-6.554;2023-01-15T03:19:20;1;0;
40371;PMS5003;28564;53.346;-6.554;2023-01-15T03:21:52;2;0;
40371;PMS5003;28564;53.346;-6.554;2023-01-15T03:24:26;1;1;
40371;PMS5003;28564;53.346;-6.554;2023-01-15T03:26:57;3;0;
40371;PMS5003;28564;53.346;-6.554;2023-01-15T03:29:27;1;1;
40371;PMS5003;28564;53.346;-6.554;2023-01-15T03:31:58;2;1;
40371;PMS5003;28564;53.346;-6.554;2023-01-15T03:34:28;1;1;
40371;PMS5003;28564;53.346;-6.554;2023-01-15T03:37:01;0;0;
40371;PMS5003;28564;53.346;-6.554;2023-01-15T03:39:29;1;1;
40371;PMS5003;28564;53.346;-6.554;2023-01-15T03:42:00;1;1;
40371;PMS5003;28564;53.346;-6.554;2023-01-15T03:44:37;1;1;
40371;PMS5003;28564;53.346;-6.554;2023-01-15T03:47:14;1;1;
40371;PMS5003;28564;53.346;-6.554;2023-01-15T03:49:54;0;0;
40371;PMS5003;28564;53.346;-6.554;2023-01-15T03:52:28;0;0;
40371;PMS5003;28564;53.346;-6.554;2023-01-15T03:55:03;1;1;
40371;PMS5003;28564;53.346;-6.554;2023-01-15T03:57:38;2;1;
40371;PMS5003;28564;53.346;-6.554;2023-01-15T04:00:13;1;1;
40371;PMS5003;28564;53.346;-6.554;2023-01-15T04:02:44;1;0;
40371;PMS5003;28564;53.346;-6.554;2023-01-15T04:05:14;1;1;
40371;PMS5003;28564;53.346;-6.554;2023-01-15T04:07:43;2;0;
40371;PMS5003;28564;53.346;-6.554;2023-01-15T04:10:13;1;1;
40371;PMS5003;28564;53.346;-6.554;2023-01-15T04:12:40;0;0;
40371;PMS5003;28564;53.346;-6.554;2023-01-15T04:15:09;3;2;
40371;PMS5003;28564;53.346;-6.554;2023-01-15T04:17:36;2;1;
40371;PMS5003;28564;53.346;-6.554;2023-01-15T04:20:04;1;1;
40371;PMS5003;28564;53.346;-6.554;2023-01-15T04:22:33;1;0;
40371;PMS5003;28564;53.346;-6.554;2023-01-15T04:25:00;0;0;
40371;PMS5003;28564;53.346;-6.554;2023-01-15T04:27:28;1;1;
40371;PMS5003;28564;53.346;-6.554;2023-01-15T04:29:55;1;1;
40371;PMS5003;28564;53.346;-6.554;2023-01-15T04:32:22;1;1;
40371;PMS5003;28564;53.346;-6.554;2023-01-15T04:34:50;2;0;
40371;PMS5003;28564;53.346;-6.554;2023-01-15T04:37:17;1;0;
40371;PMS5003;28564;53.346;-6.554;2023-01-15T04:39:45;0;0;
40371;PMS5003;28564;53.346;-6.554;2023-01-15T04:42:13;0;0;
40371;PMS5003;28564;53.346;-6.554;2023-01-15T04:44:40;3;1;
40371;PMS5003;28564;53.346;-6.554;2023-01-15T04:47:08;3;1;
40371;PMS5003;28564;53.346;-6.554;2023-01-15T04:49:35;2;0;
40371;PMS5003;28564;53.346;-6.554;2023-01-15T04:52:03;0;0;
40371;PMS5003;28564;53.346;-6.554;2023-01-15T04:54:31;0;0;
40371;PMS5003;28564;53.346;-6.554;2023-01-15T04:56:58;1;1;
40371;PMS5003;28564;53.346;-6.554;2023-01-15T04:59:26;1;0;
40371;PMS5003;28564;53.346;-6.554;2023-01-15T05:01:53;1;1;
40371;PMS5003;28564;53.346;-6.554;2023-01-15T05:04:21;1;1;
40371;PMS5003;28564;53.346;-6.554;2023-01-15T05:06:48;2;1;
40371;PMS5003;28564;53.346;-6.554;2023-01-15T05:09:16;0;0;
40371;PMS5003;28564;53.346;-6.554;2023-01-15T05:11:43;2;1;
40371;PMS5003;28564;53.346;-6.554;2023-01-15T05:14:10;0;0;
40371;PMS5003;28564;53.346;-6.554;2023-01-15T05:16:38;0;0;
40371;PMS5003;28564;53.346;-6.554;2023-01-15T05:19:05;0;0;
40371;PMS5003;28564;53.346;-6.554;2023-01-15T05:21:33;6;1;
40371;PMS5003;28564;53.346;-6.554;2023-01-15T05:24:03;2;0;
40371;PMS5003;28564;53.346;-6.554;2023-01-15T05:26:32;2;0;
40371;PMS5003;28564;53.346;-6.554;2023-01-15T05:29:01;1;1;
40371;PMS5003;28564;53.346;-6.554;2023-01-15T05:31:29;2;2;
40371;PMS5003;28564;53.346;-6.554;2023-01-15T05:33:57;1;1;
40371;PMS5003;28564;53.346;-6.554;2023-01-15T05:36:25;1;1;
40371;PMS5003;28564;53.346;-6.554;2023-01-15T05:38:55;3;1;
40371;PMS5003;28564;53.346;-6.554;2023-01-15T05:41:23;1;0;
40371;PMS5003;28564;53.346;-6.554;2023-01-15T05:43:50;2;0;
40371;PMS5003;28564;53.346;-6.554;2023-01-15T05:46:17;0;0;
40371;PMS5003;28564;53.346;-6.554;2023-01-15T05:48:44;0;0;
40371;PMS5003;28564;53.346;-6.554;2023-01-15T05:51:12;1;1;
40371;PMS5003;28564;53.346;-6.554;2023-01-15T05:53:39;1;1;
40371;PMS5003;28564;53.346;-6.554;2023-01-15T05:56:07;2;0;
40371;PMS5003;28564;53.346;-6.554;2023-01-15T05:58:34;1;0;
40371;PMS5003;28564;53.346;-6.554;2023-01-15T06:01:04;2;0;
40371;PMS5003;28564;53.346;-6.554;2023-01-15T06:03:33;3;1;
40371;PMS5003;28564;53.346;-6.554;2023-01-15T06:06:01;2;1;
40371;PMS5003;28564;53.346;-6.554;2023-01-15T06:08:29;1;1;
40371;PMS5003;28564;53.346;-6.554;2023-01-15T06:10:57;6;3;
40371;PMS5003;28564;53.346;-6.554;2023-01-15T06:13:24;1;1;
40371;PMS5003;28564;53.346;-6.554;2023-01-15T06:15:51;3;1;
40371;PMS5003;28564;53.346;-6.554;2023-01-15T06:18:19;2;1;
40371;PMS5003;28564;53.346;-6.554;2023-01-15T06:20:48;5;5;
40371;PMS5003;28564;53.346;-6.554;2023-01-15T06:23:16;4;1;
40371;PMS5003;28564;53.346;-6.554;2023-01-15T06:25:44;2;0;
40371;PMS5003;28564;53.346;-6.554;2023-01-15T06:28:11;3;1;
40371;PMS5003;28564;53.346;-6.554;2023-01-15T06:30:39;7;2;
40371;PMS5003;28564;53.346;-6.554;2023-01-15T06:33:06;4;3;
40371;PMS5003;28564;53.346;-6.554;2023-01-15T06:35:33;2;0;
40371;PMS5003;28564;53.346;-6.554;2023-01-15T06:38:01;4;0;
40371;PMS5003;28564;53.346;-6.554;2023-01-15T06:40:28;3;0;
40371;PMS5003;28564;53.346;-6.554;2023-01-15T06:42:57;2;2;
40371;PMS5003;28564;53.346;-6.554;2023-01-15T06:45:25;1;1;
40371;PMS5003;28564;53.346;-6.554;2023-01-15T06:47:52;1;0;
40371;PMS5003;28564;53.346;-6.554;2023-01-15T06:50:20;2;0;
40371;PMS5003;28564;53.346;-6.554;2023-01-15T06:52:47;0;0;
40371;PMS5003;28564;53.346;-6.554;2023-01-15T06:55:14;0;0;
40371;PMS5003;28564;53.346;-6.554;2023-01-15T06:57:42;4;1;
40371;PMS5003;28564;53.346;-6.554;2023-01-15T07:00:10;2;0;
40371;PMS5003;28564;53.346;-6.554;2023-01-15T07:02:37;2;0;
40371;PMS5003;28564;53.346;-6.554;2023-01-15T07:05:05;3;0;
40371;PMS5003;28564;53.346;-6.554;2023-01-15T07:07:33;4;2;
40371;PMS5003;28564;53.346;-6.554;2023-01-15T07:10:00;2;0;
40371;PMS5003;28564;53.346;-6.554;2023-01-15T07:12:28;4;1;
40371;PMS5003;28564;53.346;-6.554;2023-01-15T07:14:55;3;1;
40371;PMS5003;28564;53.346;-6.554;2023-01-15T07:17:22;2;1;
40371;PMS5003;28564;53.346;-6.554;2023-01-15T07:19:50;1;1;
40371;PMS5003;28564;53.346;-6.554;2023-01-15T07:22:17;0;0;
40371;PMS5003;28564;53.346;-6.554;2023-01-15T07:24:45;0;0;
40371;PMS5003;28564;53.346;-6.554;2023-01-15T07:27:12;0;0;
40371;PMS5003;28564;53.346;-6.554;2023-01-15T07:29:39;2;1;
40371;PMS5003;28564;53.346;-6.554;2023-01-15T07:32:07;5;2;
40371;PMS5003;28564;53.346;-6.554;2023-01-15T07:34:35;2;1;
40371;PMS5003;28564;53.346;-6.554;2023-01-15T07:37:02;3;2;
40371;PMS5003;28564;53.346;-6.554;2023-01-15T07:39:30;3;1;
40371;PMS5003;28564;53.346;-6.554;2023-01-15T07:41:57;5;1;
40371;PMS5003;28564;53.346;-6.554;2023-01-15T07:44:24;2;1;
40371;PMS5003;28564;53.346;-6.554;2023-01-15T07:46:52;4;2;
40371;PMS5003;28564;53.346;-6.554;2023-01-15T07:49:19;3;1;
40371;PMS5003;28564;53.346;-6.554;2023-01-15T07:51:47;2;1;
40371;PMS5003;28564;53.346;-6.554;2023-01-15T07:54:14;5;2;
40371;PMS5003;28564;53.346;-6.554;2023-01-15T07:56:41;1;1;
40371;PMS5003;28564;53.346;-6.554;2023-01-15T07:59:09;3;2;
40371;PMS5003;28564;53.346;-6.554;2023-01-15T08:01:36;0;0;
40371;PMS5003;28564;53.346;-6.554;2023-01-15T08:04:03;1;1;
40371;PMS5003;28564;53.346;-6.554;2023-01-15T08:06:31;2;2;
40371;PMS5003;28564;53.346;-6.554;2023-01-15T08:08:58;3;1;
40371;PMS5003;28564;53.346;-6.554;2023-01-15T08:11:26;1;1;
40371;PMS5003;28564;53.346;-6.554;2023-01-15T08:13:53;3;1;
40371;PMS5003;28564;53.346;-6.554;2023-01-15T08:16:20;2;2;
40371;PMS5003;28564;53.346;-6.554;2023-01-15T08:18:48;4;1;
40371;PMS5003;28564;53.346;-6.554;2023-01-15T08:21:15;3;1;
40371;PMS5003;28564;53.346;-6.554;2023-01-15T08:23:42;4;1;
40371;PMS5003;28564;53.346;-6.554;2023-01-15T08:26:10;2;2;
40371;PMS5003;28564;53.346;-6.554;2023-01-15T08:28:37;0;0;
40371;PMS5003;28564;53.346;-6.554;2023-01-15T08:31:05;1;1;
40371;PMS5003;28564;53.346;-6.554;2023-01-15T08:33:33;3;1;
40371;PMS5003;28564;53.346;-6.554;2023-01-15T08:36:00;1;1;
40371;PMS5003;28564;53.346;-6.554;2023-01-15T08:38:27;1;1;
40371;PMS5003;28564;53.346;-6.554;2023-01-15T08:40:55;1;1;
40371;PMS5003;28564;53.346;-6.554;2023-01-15T08:43:22;3;2;
40371;PMS5003;28564;53.346;-6.554;2023-01-15T08:45:50;0;0;
40371;PMS5003;28564;53.346;-6.554;2023-01-15T08:48:17;3;2;
40371;PMS5003;28564;53.346;-6.554;2023-01-15T08:50:45;2;2;
40371;PMS5003;28564;53.346;-6.554;2023-01-15T08:53:12;2;0;
40371;PMS5003;28564;53.346;-6.554;2023-01-15T08:55:39;4;1;
40371;PMS5003;28564;53.346;-6.554;2023-01-15T08:58:07;7;3;
40371;PMS5003;28564;53.346;-6.554;2023-01-15T09:00:34;2;1;
40371;PMS5003;28564;53.346;-6.554;2023-01-15T09:03:02;1;1;
40371;PMS5003;28564;53.346;-6.554;2023-01-15T09:05:29;2;0;
40371;PMS5003;28564;53.346;-6.554;2023-01-15T09:07:56;6;2;
40371;PMS5003;28564;53.346;-6.554;2023-01-15T09:10:24;1;0;
40371;PMS5003;28564;53.346;-6.554;2023-01-15T09:12:51;4;1;
40371;PMS5003;28564;53.346;-6.554;2023-01-15T09:15:18;0;0;
40371;PMS5003;28564;53.346;-6.554;2023-01-15T09:17:46;1;0;
40371;PMS5003;28564;53.346;-6.554;2023-01-15T09:20:13;0;0;
40371;PMS5003;28564;53.346;-6.554;2023-01-15T09:22:40;5;2;
40371;PMS5003;28564;53.346;-6.554;2023-01-15T09:25:08;3;1;
40371;PMS5003;28564;53.346;-6.554;2023-01-15T09:27:35;2;1;
40371;PMS5003;28564;53.346;-6.554;2023-01-15T09:30:03;3;0;
40371;PMS5003;28564;53.346;-6.554;2023-01-15T09:32:31;2;1;
40371;PMS5003;28564;53.346;-6.554;2023-01-15T09:34:58;3;2;
40371;PMS5003;28564;53.346;-6.554;2023-01-15T09:37:25;2;1;
40371;PMS5003;28564;53.346;-6.554;2023-01-15T09:39:53;1;1;
40371;PMS5003;28564;53.346;-6.554;2023-01-15T09:42:27;2;1;
40371;PMS5003;28564;53.346;-6.554;2023-01-15T09:45:08;6;3;
40371;PMS5003;28564;53.346;-6.554;2023-01-15T09:47:43;2;1;
40371;PMS5003;28564;53.346;-6.554;2023-01-15T09:50:23;3;1;
40371;PMS5003;28564;53.346;-6.554;2023-01-15T09:53:20;1;1;
40371;PMS5003;28564;53.346;-6.554;2023-01-15T09:55:57;2;2;
40371;PMS5003;28564;53.346;-6.554;2023-01-15T09:58:30;1;1;
40371;PMS5003;28564;53.346;-6.554;2023-01-15T10:03:55;1;0;
40371;PMS5003;28564;53.346;-6.554;2023-01-15T10:06:27;2;1;
40371;PMS5003;28564;53.346;-6.554;2023-01-15T10:09:00;2;2;
40371;PMS5003;28564;53.346;-6.554;2023-01-15T10:11:36;1;1;
40371;PMS5003;28564;53.346;-6.554;2023-01-15T10:14:10;3;2;
40371;PMS5003;28564;53.346;-6.554;2023-01-15T10:16:41;0;0;
40371;PMS5003;28564;53.346;-6.554;2023-01-15T10:19:08;0;0;
40371;PMS5003;28564;53.346;-6.554;2023-01-15T10:21:37;2;2;
40371;PMS5003;28564;53.346;-6.554;2023-01-15T10:24:11;1;1;
40371;PMS5003;28564;53.346;-6.554;2023-01-15T10:26:45;3;1;
40371;PMS5003;28564;53.346;-6.554;2023-01-15T10:29:22;6;3;
40371;PMS5003;28564;53.346;-6.554;2023-01-15T10:31:58;3;2;
40371;PMS5003;28564;53.346;-6.554;2023-01-15T10:34:44;1;1;
40371;PMS5003;28564;53.346;-6.554;2023-01-15T10:37:23;5;3;
40371;PMS5003;28564;53.346;-6.554;2023-01-15T10:40:02;1;1;
40371;PMS5003;28564;53.346;-6.554;2023-01-15T10:42:49;1;1;
40371;PMS5003;28564;53.346;-6.554;2023-01-15T10:45:27;1;1;
40371;PMS5003;28564;53.346;-6.554;2023-01-15T10:47:59;4;3;
40371;PMS5003;28564;53.346;-6.554;2023-01-15T10:50:31;2;2;
40371;PMS5003;28564;53.346;-6.554;2023-01-15T10:53:02;1;1;
40371;PMS5003;28564;53.346;-6.554;2023-01-15T10:55:35;2;2;
40371;PMS5003;28564;53.346;-6.554;2023-01-15T10:58:08;2;1;
40371;PMS5003;28564;53.346;-6.554;2023-01-15T11:00:43;4;4;
40371;PMS5003;28564;53.346;-6.554;2023-01-15T11:03:17;2;2;
40371;PMS5003;28564;53.346;-6.554;2023-01-15T11:05:48;1;1;
40371;PMS5003;28564;53.346;-6.554;2023-01-15T11:08:21;2;1;
40371;PMS5003;28564;53.346;-6.554;2023-01-15T11:10:49;4;3;
40371;PMS5003;28564;53.346;-6.554;2023-01-15T11:13:18;4;1;
40371;PMS5003;28564;53.346;-6.554;2023-01-15T11:15:47;6;1;
40371;PMS5003;28564;53.346;-6.554;2023-01-15T11:18:17;2;2;
40371;PMS5003;28564;53.346;-6.554;2023-01-15T11:20:50;3;1;
40371;PMS5003;28564;53.346;-6.554;2023-01-15T11:23:18;3;3;
40371;PMS5003;28564;53.346;-6.554;2023-01-15T11:25:47;1;1;
40371;PMS5003;28564;53.346;-6.554;2023-01-15T11:28:16;1;1;
40371;PMS5003;28564;53.346;-6.554;2023-01-15T11:30:52;1;1;
40371;PMS5003;28564;53.346;-6.554;2023-01-15T11:33:20;1;1;
40371;PMS5003;28564;53.346;-6.554;2023-01-15T11:35:50;4;1;
40371;PMS5003;28564;53.346;-6.554;2023-01-15T11:38:17;1;1;
40371;PMS5003;28564;53.346;-6.554;2023-01-15T11:40:50;1;1;
40371;PMS5003;28564;53.346;-6.554;2023-01-15T11:43:19;0;0;
40371;PMS5003;28564;53.346;-6.554;2023-01-15T11:45:48;1;1;
40371;PMS5003;28564;53.346;-6.554;2023-01-15T11:48:17;1;1;
40371;PMS5003;28564;53.346;-6.554;2023-01-15T11:50:48;3;3;
40371;PMS5003;28564;53.346;-6.554;2023-01-15T11:53:19;4;2;
40371;PMS5003;28564;53.346;-6.554;2023-01-15T11:55:49;2;2;
40371;PMS5003;28564;53.346;-6.554;2023-01-15T11:58:18;2;2;
40371;PMS5003;28564;53.346;-6.554;2023-01-15T12:00:48;2;1;
40371;PMS5003;28564;53.346;-6.554;2023-01-15T12:03:17;2;1;
40371;PMS5003;28564;53.346;-6.554;2023-01-15T12:05:52;1;1;
40371;PMS5003;28564;53.346;-6.554;2023-01-15T12:08:26;2;2;
40371;PMS5003;28564;53.346;-6.554;2023-01-15T12:11:08;1;1;
40371;PMS5003;28564;53.346;-6.554;2023-01-15T12:13:47;2;1;
40371;PMS5003;28564;53.346;-6.554;2023-01-15T12:16:23;2;2;
40371;PMS5003;28564;53.346;-6.554;2023-01-15T12:18:59;2;1;
40371;PMS5003;28564;53.346;-6.554;2023-01-15T12:22:18;2;2;
40371;PMS5003;28564;53.346;-6.554;2023-01-15T12:25:00;2;1;
40371;PMS5003;28564;53.346;-6.554;2023-01-15T12:27:43;1;1;
40371;PMS5003;28564;53.346;-6.554;2023-01-15T12:30:20;1;1;
40371;PMS5003;28564;53.346;-6.554;2023-01-15T12:32:54;2;2;
40371;PMS5003;28564;53.346;-6.554;2023-01-15T12:35:32;2;2;
40371;PMS5003;28564;53.346;-6.554;2023-01-15T12:38:07;3;3;
40371;PMS5003;28564;53.346;-6.554;2023-01-15T12:40:43;1;1;
40371;PMS5003;28564;53.346;-6.554;2023-01-15T12:43:18;2;2;
40371;PMS5003;28564;53.346;-6.554;2023-01-15T12:45:50;3;2;
40371;PMS5003;28564;53.346;-6.554;2023-01-15T12:48:20;6;3;
40371;PMS5003;28564;53.346;-6.554;2023-01-15T12:50:55;5;3;
40371;PMS5003;28564;53.346;-6.554;2023-01-15T12:53:26;5;3;
40371;PMS5003;28564;53.346;-6.554;2023-01-15T12:56:00;3;3;
40371;PMS5003;28564;53.346;-6.554;2023-01-15T12:58:36;5;3;
40371;PMS5003;28564;53.346;-6.554;2023-01-15T13:01:10;2;2;
40371;PMS5003;28564;53.346;-6.554;2023-01-15T13:03:54;5;4;
40371;PMS5003;28564;53.346;-6.554;2023-01-15T13:06:32;3;3;
40371;PMS5003;28564;53.346;-6.554;2023-01-15T13:09:05;6;4;
40371;PMS5003;28564;53.346;-6.554;2023-01-15T13:11:39;5;4;
40371;PMS5003;28564;53.346;-6.554;2023-01-15T13:14:08;3;3;
40371;PMS5003;28564;53.346;-6.554;2023-01-15T13:16:41;3;3;
40371;PMS5003;28564;53.346;-6.554;2023-01-15T13:19:16;7;6;
40371;PMS5003;28564;53.346;-6.554;2023-01-15T13:21:56;7;6;
40371;PMS5003;28564;53.346;-6.554;2023-01-15T13:24:32;4;4;
40371;PMS5003;28564;53.346;-6.554;2023-01-15T13:27:29;5;4;
40371;PMS5003;28564;53.346;-6.554;2023-01-15T13:30:12;4;2;
40371;PMS5003;28564;53.346;-6.554;2023-01-15T13:32:47;3;3;
40371;PMS5003;28564;53.346;-6.554;2023-01-15T13:35:19;3;2;
40371;PMS5003;28564;53.346;-6.554;2023-01-15T13:37:54;6;3;
40371;PMS5003;28564;53.346;-6.554;2023-01-15T13:40:26;3;3;
40371;PMS5003;28564;53.346;-6.554;2023-01-15T13:42:56;2;2;
40371;PMS5003;28564;53.346;-6.554;2023-01-15T13:45:29;4;3;
40371;PMS5003;28564;53.346;-6.554;2023-01-15T13:48:03;4;3;
40371;PMS5003;28564;53.346;-6.554;2023-01-15T13:50:35;4;2;
40371;PMS5003;28564;53.346;-6.554;2023-01-15T13:53:08;3;3;
40371;PMS5003;28564;53.346;-6.554;2023-01-15T13:55:48;5;4;
40371;PMS5003;28564;53.346;-6.554;2023-01-15T13:58:19;6;5;
40371;PMS5003;28564;53.346;-6.554;2023-01-15T14:00:59;16;15;
40371;PMS5003;28564;53.346;-6.554;2023-01-15T14:03:30;21;20;
40371;PMS5003;28564;53.346;-6.554;2023-01-15T14:06:00;37;35;
40371;PMS5003;28564;53.346;-6.554;2023-01-15T14:08:35;36;29;
40371;PMS5003;28564;53.346;-6.554;2023-01-15T14:11:05;112;98;
40371;PMS5003;28564;53.346;-6.554;2023-01-15T14:14:01;95;86;
40371;PMS5003;28564;53.346;-6.554;2023-01-15T14:16:47;135;111;
40371;PMS5003;28564;53.346;-6.554;2023-01-15T14:19:32;149;122;
40371;PMS5003;28564;53.346;-6.554;2023-01-15T14:21:51;145;120;
40371;PMS5003;28564;53.346;-6.554;2023-01-15T14:24:30;256;204;
40371;PMS5003;28564;53.346;-6.554;2023-01-15T14:27:13;184;158;
40371;PMS5003;28564;53.346;-6.554;2023-01-15T14:29:57;109;96;
40371;PMS5003;28564;53.346;-6.554;2023-01-15T14:32:40;36;35;
40371;PMS5003;28564;53.346;-6.554;2023-01-15T14:35:18;20;17;
40371;PMS5003;28564;53.346;-6.554;2023-01-15T14:37:49;9;9;
40371;PMS5003;28564;53.346;-6.554;2023-01-15T14:40:19;9;9;
40371;PMS5003;28564;53.346;-6.554;2023-01-15T14:42:49;10;8;
40371;PMS5003;28564;53.346;-6.554;2023-01-15T14:45:22;8;6;
40371;PMS5003;28564;53.346;-6.554;2023-01-15T14:47:52;6;5;
40371;PMS5003;28564;53.346;-6.554;2023-01-15T14:50:24;5;4;
40371;PMS5003;28564;53.346;-6.554;2023-01-15T14:52:55;4;4;
40371;PMS5003;28564;53.346;-6.554;2023-01-15T14:55:28;5;5;
40371;PMS5003;28564;53.346;-6.554;2023-01-15T14:57:56;8;5;
40371;PMS5003;28564;53.346;-6.554;2023-01-15T15:00:29;3;3;
40371;PMS5003;28564;53.346;-6.554;2023-01-15T15:03:02;4;4;
40371;PMS5003;28564;53.346;-6.554;2023-01-15T15:05:40;3;3;
40371;PMS5003;28564;53.346;-6.554;2023-01-15T15:08:12;3;3;
40371;PMS5003;28564;53.346;-6.554;2023-01-15T15:10:42;2;2;
40371;PMS5003;28564;53.346;-6.554;2023-01-15T15:13:13;2;2;
40371;PMS5003;28564;53.346;-6.554;2023-01-15T15:15:49;2;2;
40371;PMS5003;28564;53.346;-6.554;2023-01-15T15:18:25;12;12;
40371;PMS5003;28564;53.346;-6.554;2023-01-15T15:20:59;34;33;
40371;PMS5003;28564;53.346;-6.554;2023-01-15T15:23:33;27;24;
40371;PMS5003;28564;53.346;-6.554;2023-01-15T15:26:16;9;7;
40371;PMS5003;28564;53.346;-6.554;2023-01-15T15:28:54;4;4;
40371;PMS5003;28564;53.346;-6.554;2023-01-15T15:31:22;3;3;
40371;PMS5003;28564;53.346;-6.554;2023-01-15T15:33:50;3;2;
40371;PMS5003;28564;53.346;-6.554;2023-01-15T15:36:20;3;3;
40371;PMS5003;28564;53.346;-6.554;2023-01-15T15:38:51;3;3;
40371;PMS5003;28564;53.346;-6.554;2023-01-15T15:41:19;4;4;
40371;PMS5003;28564;53.346;-6.554;2023-01-15T15:43:51;4;4;
40371;PMS5003;28564;53.346;-6.554;2023-01-15T15:46:24;2;2;
40371;PMS5003;28564;53.346;-6.554;2023-01-15T15:48:55;2;2;
40371;PMS5003;28564;53.346;-6.554;2023-01-15T15:51:27;6;3;
40371;PMS5003;28564;53.346;-6.554;2023-01-15T15:54:05;7;6;
40371;PMS5003;28564;53.346;-6.554;2023-01-15T15:56:42;2;2;
40371;PMS5003;28564;53.346;-6.554;2023-01-15T15:59:15;4;4;
40371;PMS5003;28564;53.346;-6.554;2023-01-15T16:01:50;2;2;
40371;PMS5003;28564;53.346;-6.554;2023-01-15T16:04:17;2;2;
40371;PMS5003;28564;53.346;-6.554;2023-01-15T16:06:45;3;3;
40371;PMS5003;28564;53.346;-6.554;2023-01-15T16:09:13;2;2;
40371;PMS5003;28564;53.346;-6.554;2023-01-15T16:11:45;5;5;
40371;PMS5003;28564;53.346;-6.554;2023-01-15T16:14:13;8;7;
40371;PMS5003;28564;53.346;-6.554;2023-01-15T16:16:42;9;9;
40371;PMS5003;28564;53.346;-6.554;2023-01-15T16:19:11;11;11;
40371;PMS5003;28564;53.346;-6.554;2023-01-15T16:21:43;11;8;
40371;PMS5003;28564;53.346;-6.554;2023-01-15T16:24:21;9;8;
40371;PMS5003;28564;53.346;-6.554;2023-01-15T16:26:52;11;9;
40371;PMS5003;28564;53.346;-6.554;2023-01-15T16:29:25;8;8;
40371;PMS5003;28564;53.346;-6.554;2023-01-15T16:31:54;9;8;
40371;PMS5003;28564;53.346;-6.554;2023-01-15T16:34:23;6;4;
40371;PMS5003;28564;53.346;-6.554;2023-01-15T16:36:53;6;6;
40371;PMS5003;28564;53.346;-6.554;2023-01-15T16:39:21;6;5;
40371;PMS5003;28564;53.346;-6.554;2023-01-15T16:41:51;5;5;
40371;PMS5003;28564;53.346;-6.554;2023-01-15T16:44:23;4;4;
40371;PMS5003;28564;53.346;-6.554;2023-01-15T16:46:55;7;6;
40371;PMS5003;28564;53.346;-6.554;2023-01-15T16:49:26;6;5;
40371;PMS5003;28564;53.346;-6.554;2023-01-15T16:51:55;12;11;
40371;PMS5003;28564;53.346;-6.554;2023-01-15T16:54:57;26;18;
40371;PMS5003;28564;53.346;-6.554;2023-01-15T16:57:26;39;36;
40371;PMS5003;28564;53.346;-6.554;2023-01-15T16:59:57;18;16;